sensor_id;sensor_type;location;lat;lon;timestamp;pressure;altitude;pressure_sealevel;temperature;humidity
16431;BME280;8325;49.284;7.238;2023-05-29T04:04:35;98829.22;;;12.64;79.68
16431;BME280;8325;49.284;7.238;2023-05-29T04:08:47;98834.75;;;12.54;79.61
16431;BME280;8325;49.284;7.238;2023-05-29T04:12:59;98837.53;;;12.67;79.60
16431;BME280;8325;49.284;7.238;2023-05-29T04:17:11;98844.97;;;12.64;79.56
16431;BME280;8325;49.284;7.238;2023-05-29T04:21:23;98848.22;;;12.66;79.17
16431;BME280;8325;49.284;7.238;2023-05-29T04:25:38;98841.19;;;12.96;75.65
16431;BME280;8325;49.284;7.238;2023-05-29T04:29:50;98850.38;;;13.22;74.24
16431;BME280;8325;49.284;7.238;2023-05-29T04:34:02;98852.00;;;13.38;75.32
16431;BME280;8325;49.284;7.238;2023-05-29T04:38:16;98859.47;;;13.55;72.59
16431;BME280;8325;49.284;7.238;2023-05-29T04:42:28;98864.03;;;13.68;73.37
16431;BME280;8325;49.284;7.238;2023-05-29T04:46:45;98859.66;;;13.75;72.81
16431;BME280;8325;49.284;7.238;2023-05-29T04:50:59;98863.41;;;13.88;72.13
16431;BME280;8325;49.284;7.238;2023-05-29T04:55:11;98866.25;;;13.86;72.79
16431;BME280;8325;49.284;7.238;2023-05-29T04:59:23;98864.31;;;13.95;72.79
16431;BME280;8325;49.284;7.238;2023-05-29T05:03:35;98875.69;;;14.02;70.33
16431;BME280;8325;49.284;7.238;2023-05-29T05:07:47;98875.84;;;14.22;70.44
16431;BME280;8325;49.284;7.238;2023-05-29T05:11:59;98877.06;;;14.47;68.82
16431;BME280;8325;49.284;7.238;2023-05-29T05:16:10;98878.97;;;14.54;68.58
16431;BME280;8325;49.284;7.238;2023-05-29T05:20:23;98879.22;;;16.16;62.55
16431;BME280;8325;49.284;7.238;2023-05-29T05:24:40;98871.03;;;19.91;49.94
16431;BME280;8325;49.284;7.238;2023-05-29T05:28:52;98866.34;;;22.09;43.47
16431;BME280;8325;49.284;7.238;2023-05-29T05:33:04;98856.84;;;23.02;40.07
16431;BME280;8325;49.284;7.238;2023-05-29T05:37:16;98867.28;;;24.39;37.18
16431;BME280;8325;49.284;7.238;2023-05-29T05:41:28;98863.72;;;25.97;34.26
16431;BME280;8325;49.284;7.238;2023-05-29T05:45:40;98869.53;;;25.00;35.65
16431;BME280;8325;49.284;7.238;2023-05-29T05:49:53;98866.38;;;25.97;34.17
16431;BME280;8325;49.284;7.238;2023-05-29T05:54:06;98862.38;;;26.30;32.94
16431;BME280;8325;49.284;7.238;2023-05-29T05:58:19;98879.53;;;25.20;34.97
16431;BME280;8325;49.284;7.238;2023-05-29T06:02:31;98875.75;;;25.99;33.76
16431;BME280;8325;49.284;7.238;2023-05-29T06:06:43;98881.22;;;25.41;35.21
16431;BME280;8325;49.284;7.238;2023-05-29T06:10:54;98880.19;;;25.47;34.18
16431;BME280;8325;49.284;7.238;2023-05-29T06:15:07;98875.22;;;26.02;33.74
16431;BME280;8325;49.284;7.238;2023-05-29T06:19:19;98883.50;;;26.31;33.13
16431;BME280;8325;49.284;7.238;2023-05-29T06:23:40;98895.47;;;25.67;34.24
16431;BME280;8325;49.284;7.238;2023-05-29T06:27:54;98909.00;;;25.35;35.23
16431;BME280;8325;49.284;7.238;2023-05-29T06:32:05;98911.06;;;25.13;35.85
16431;BME280;8325;49.284;7.238;2023-05-29T06:36:17;98921.09;;;24.26;38.14
16431;BME280;8325;49.284;7.238;2023-05-29T06:40:29;98923.78;;;22.89;40.97
16431;BME280;8325;49.284;7.238;2023-05-29T06:44:40;98935.88;;;22.80;40.84
16431;BME280;8325;49.284;7.238;2023-05-29T06:48:53;98927.97;;;22.17;42.16
16431;BME280;8325;49.284;7.238;2023-05-29T06:53:07;98934.53;;;22.26;42.61
16431;BME280;8325;49.284;7.238;2023-05-29T06:57:28;98935.88;;;21.83;43.65
16431;BME280;8325;49.284;7.238;2023-05-29T07:01:39;98928.31;;;21.52;43.13
16431;BME280;8325;49.284;7.238;2023-05-29T07:05:52;98929.19;;;21.29;43.90
16431;BME280;8325;49.284;7.238;2023-05-29T07:10:05;98932.41;;;21.43;43.64
16431;BME280;8325;49.284;7.238;2023-05-29T07:14:17;98933.03;;;20.20;46.08
16431;BME280;8325;49.284;7.238;2023-05-29T07:18:29;98934.81;;;21.32;44.56
16431;BME280;8325;49.284;7.238;2023-05-29T07:22:44;98941.72;;;20.39;46.88
16431;BME280;8325;49.284;7.238;2023-05-29T07:26:56;98930.47;;;20.56;46.56
16431;BME280;8325;49.284;7.238;2023-05-29T07:31:07;98938.44;;;20.67;45.73
16431;BME280;8325;49.284;7.238;2023-05-29T07:35:19;98930.94;;;20.53;46.36
16431;BME280;8325;49.284;7.238;2023-05-29T07:39:33;98943.31;;;20.17;47.38
16431;BME280;8325;49.284;7.238;2023-05-29T07:43:52;98939.66;;;20.41;46.52
16431;BME280;8325;49.284;7.238;2023-05-29T07:48:04;98938.34;;;20.20;46.22
16431;BME280;8325;49.284;7.238;2023-05-29T07:52:18;98946.59;;;20.42;45.65
16431;BME280;8325;49.284;7.238;2023-05-29T07:56:30;98946.44;;;20.79;46.00
16431;BME280;8325;49.284;7.238;2023-05-29T08:00:44;98941.22;;;20.73;43.96
16431;BME280;8325;49.284;7.238;2023-05-29T08:04:56;98930.84;;;20.71;44.42
16431;BME280;8325;49.284;7.238;2023-05-29T08:09:09;98930.72;;;20.89;44.07
16431;BME280;8325;49.284;7.238;2023-05-29T08:13:22;98939.38;;;20.73;43.72
16431;BME280;8325;49.284;7.238;2023-05-29T08:17:34;98937.81;;;20.42;43.86
16431;BME280;8325;49.284;7.238;2023-05-29T08:21:46;98941.56;;;20.76;44.65
16431;BME280;8325;49.284;7.238;2023-05-29T08:25:58;98953.81;;;21.01;44.07
16431;BME280;8325;49.284;7.238;2023-05-29T08:30:10;98953.91;;;20.71;43.98
16431;BME280;8325;49.284;7.238;2023-05-29T08:34:23;98943.78;;;20.79;44.28
16431;BME280;8325;49.284;7.238;2023-05-29T08:38:36;98944.31;;;20.58;45.49
16431;BME280;8325;49.284;7.238;2023-05-29T08:42:55;98947.50;;;20.36;45.19
16431;BME280;8325;49.284;7.238;2023-05-29T08:47:08;98946.53;;;20.61;45.11
16431;BME280;8325;49.284;7.238;2023-05-29T08:51:30;98943.53;;;20.57;45.02
16431;BME280;8325;49.284;7.238;2023-05-29T08:55:42;98938.34;;;20.74;45.38
16431;BME280;8325;49.284;7.238;2023-05-29T08:59:55;98943.63;;;20.74;45.88
16431;BME280;8325;49.284;7.238;2023-05-29T09:04:07;98938.00;;;20.94;46.90
16431;BME280;8325;49.284;7.238;2023-05-29T09:08:20;98948.97;;;20.98;46.22
16431;BME280;8325;49.284;7.238;2023-05-29T09:12:37;98952.28;;;20.93;46.36
16431;BME280;8325;49.284;7.238;2023-05-29T09:16:49;98941.69;;;20.93;46.24
16431;BME280;8325;49.284;7.238;2023-05-29T09:21:06;98944.34;;;21.05;45.23
16431;BME280;8325;49.284;7.238;2023-05-29T09:25:22;98934.16;;;21.02;45.99
16431;BME280;8325;49.284;7.238;2023-05-29T09:29:38;98945.72;;;21.19;46.86
16431;BME280;8325;49.284;7.238;2023-05-29T09:33:51;98936.56;;;21.50;46.18
16431;BME280;8325;49.284;7.238;2023-05-29T09:38:04;98929.50;;;21.56;46.92
16431;BME280;8325;49.284;7.238;2023-05-29T09:42:16;98926.38;;;21.47;45.87
16431;BME280;8325;49.284;7.238;2023-05-29T09:46:28;98933.06;;;21.62;46.53
16431;BME280;8325;49.284;7.238;2023-05-29T09:50:39;98928.31;;;21.52;46.13
16431;BME280;8325;49.284;7.238;2023-05-29T09:54:51;98932.59;;;21.65;46.41
16431;BME280;8325;49.284;7.238;2023-05-29T09:59:04;98930.25;;;21.68;45.90
16431;BME280;8325;49.284;7.238;2023-05-29T10:03:17;98927.47;;;21.92;45.48
16431;BME280;8325;49.284;7.238;2023-05-29T10:07:31;98925.88;;;21.91;45.47
16431;BME280;8325;49.284;7.238;2023-05-29T10:11:48;98929.53;;;22.01;45.09
16431;BME280;8325;49.284;7.238;2023-05-29T10:16:01;98928.34;;;22.09;45.35
16431;BME280;8325;49.284;7.238;2023-05-29T10:20:15;98924.56;;;22.05;46.31
16431;BME280;8325;49.284;7.238;2023-05-29T10:24:28;98920.44;;;22.14;45.83
16431;BME280;8325;49.284;7.238;2023-05-29T10:28:44;98923.56;;;22.40;45.56
16431;BME280;8325;49.284;7.238;2023-05-29T10:37:59;98911.06;;;22.57;44.33
16431;BME280;8325;49.284;7.238;2023-05-29T10:42:40;98920.56;;;22.36;43.45
16431;BME280;8325;49.284;7.238;2023-05-29T10:51:25;98900.47;;;22.62;43.49
16431;BME280;8325;49.284;7.238;2023-05-29T10:55:39;98905.00;;;22.79;43.50
16431;BME280;8325;49.284;7.238;2023-05-29T11:00:07;98899.78;;;22.89;43.45
16431;BME280;8325;49.284;7.238;2023-05-29T11:08:52;98906.34;;;23.20;42.52
16431;BME280;8325;49.284;7.238;2023-05-29T11:13:04;98910.63;;;23.21;41.79
16431;BME280;8325;49.284;7.238;2023-05-29T11:22:09;98926.94;;;23.47;41.41
16431;BME280;8325;49.284;7.238;2023-05-29T11:26:29;98900.91;;;23.32;41.01
16431;BME280;8325;49.284;7.238;2023-05-29T11:30:44;98919.00;;;23.52;41.14
16431;BME280;8325;49.284;7.238;2023-05-29T11:34:59;98909.75;;;23.59;40.10
16431;BME280;8325;49.284;7.238;2023-05-29T11:39:14;98912.31;;;23.71;40.60
16431;BME280;8325;49.284;7.238;2023-05-29T11:43:29;98900.44;;;23.84;40.72
16431;BME280;8325;49.284;7.238;2023-05-29T11:47:55;98912.47;;;23.64;38.94
16431;BME280;8325;49.284;7.238;2023-05-29T11:52:08;98907.88;;;23.82;38.88
16431;BME280;8325;49.284;7.238;2023-05-29T11:56:22;98896.28;;;23.98;39.49
16431;BME280;8325;49.284;7.238;2023-05-29T12:00:35;98906.06;;;24.15;39.19
16431;BME280;8325;49.284;7.238;2023-05-29T12:05:03;98896.75;;;24.17;37.56
16431;BME280;8325;49.284;7.238;2023-05-29T12:09:26;98896.56;;;24.29;38.03
16431;BME280;8325;49.284;7.238;2023-05-29T12:13:38;98893.38;;;24.27;37.38
16431;BME280;8325;49.284;7.238;2023-05-29T12:17:51;98895.19;;;24.21;37.40
16431;BME280;8325;49.284;7.238;2023-05-29T12:22:03;98888.56;;;24.29;37.25
16431;BME280;8325;49.284;7.238;2023-05-29T12:26:15;98897.19;;;24.41;37.40
16431;BME280;8325;49.284;7.238;2023-05-29T12:30:26;98894.66;;;24.56;36.53
16431;BME280;8325;49.284;7.238;2023-05-29T12:34:49;98884.84;;;24.30;36.79
16431;BME280;8325;49.284;7.238;2023-05-29T12:39:05;98888.88;;;24.70;36.52
16431;BME280;8325;49.284;7.238;2023-05-29T12:43:19;98903.25;;;24.26;37.34
16431;BME280;8325;49.284;7.238;2023-05-29T12:47:31;98904.91;;;24.38;36.58
16431;BME280;8325;49.284;7.238;2023-05-29T12:51:45;98890.44;;;24.66;36.75
16431;BME280;8325;49.284;7.238;2023-05-29T12:55:57;98878.41;;;24.58;36.25
16431;BME280;8325;49.284;7.238;2023-05-29T13:00:10;98883.44;;;24.54;35.88
16431;BME280;8325;49.284;7.238;2023-05-29T13:04:22;98874.41;;;24.66;35.86
16431;BME280;8325;49.284;7.238;2023-05-29T13:08:34;98878.16;;;24.65;35.93
16431;BME280;8325;49.284;7.238;2023-05-29T13:12:46;98883.78;;;24.68;35.28
16431;BME280;8325;49.284;7.238;2023-05-29T13:16:58;98886.06;;;24.92;35.40
16431;BME280;8325;49.284;7.238;2023-05-29T13:21:09;98889.84;;;25.01;36.18
16431;BME280;8325;49.284;7.238;2023-05-29T13:25:22;98884.19;;;24.92;35.34
16431;BME280;8325;49.284;7.238;2023-05-29T13:29:35;98887.91;;;24.86;35.85
16431;BME280;8325;49.284;7.238;2023-05-29T13:33:47;98890.53;;;24.76;35.40
16431;BME280;8325;49.284;7.238;2023-05-29T13:37:59;98883.13;;;24.88;36.56
16431;BME280;8325;49.284;7.238;2023-05-29T13:42:10;98886.31;;;24.90;35.30
16431;BME280;8325;49.284;7.238;2023-05-29T13:46:22;98871.94;;;25.01;34.36
16431;BME280;8325;49.284;7.238;2023-05-29T13:50:34;98869.31;;;25.12;34.54
16431;BME280;8325;49.284;7.238;2023-05-29T13:54:47;98878.22;;;25.22;35.31
16431;BME280;8325;49.284;7.238;2023-05-29T13:58:59;98866.69;;;25.17;34.65
16431;BME280;8325;49.284;7.238;2023-05-29T14:03:15;98861.91;;;25.24;34.56
16431;BME280;8325;49.284;7.238;2023-05-29T14:07:27;98862.44;;;25.21;34.45
16431;BME280;8325;49.284;7.238;2023-05-29T14:11:40;98858.19;;;25.30;33.99
16431;BME280;8325;49.284;7.238;2023-05-29T14:15:52;98871.16;;;25.01;33.40
16431;BME280;8325;49.284;7.238;2023-05-29T14:20:06;98852.03;;;25.19;33.62
16431;BME280;8325;49.284;7.238;2023-05-29T14:24:20;98850.44;;;25.29;34.46
16431;BME280;8325;49.284;7.238;2023-05-29T14:28:32;98872.56;;;25.14;33.75
16431;BME280;8325;49.284;7.238;2023-05-29T14:32:43;98863.53;;;25.25;33.01
16431;BME280;8325;49.284;7.238;2023-05-29T14:36:55;98868.06;;;25.19;32.73
16431;BME280;8325;49.284;7.238;2023-05-29T14:41:07;98858.75;;;25.32;32.31
16431;BME280;8325;49.284;7.238;2023-05-29T14:45:20;98863.00;;;25.33;33.03
16431;BME280;8325;49.284;7.238;2023-05-29T14:49:31;98868.94;;;24.83;33.03
16431;BME280;8325;49.284;7.238;2023-05-29T14:53:44;98855.47;;;25.15;33.58
16431;BME280;8325;49.284;7.238;2023-05-29T14:57:56;98861.25;;;25.01;33.56
16431;BME280;8325;49.284;7.238;2023-05-29T15:02:08;98845.50;;;25.05;33.85
16431;BME280;8325;49.284;7.238;2023-05-29T15:06:20;98856.47;;;25.09;33.24
16431;BME280;8325;49.284;7.238;2023-05-29T15:10:32;98846.31;;;25.06;34.28
16431;BME280;8325;49.284;7.238;2023-05-29T15:14:44;98852.81;;;25.20;33.80
16431;BME280;8325;49.284;7.238;2023-05-29T15:18:56;98854.31;;;25.06;33.56
16431;BME280;8325;49.284;7.238;2023-05-29T15:23:08;98841.31;;;25.24;34.36
16431;BME280;8325;49.284;7.238;2023-05-29T15:27:19;98846.41;;;25.16;34.51
16431;BME280;8325;49.284;7.238;2023-05-29T15:31:31;98853.81;;;25.09;34.60
16431;BME280;8325;49.284;7.238;2023-05-29T15:35:43;98845.88;;;25.19;33.67
16431;BME280;8325;49.284;7.238;2023-05-29T15:39:55;98841.50;;;25.08;33.88
16431;BME280;8325;49.284;7.238;2023-05-29T15:44:06;98845.31;;;25.17;33.43
16431;BME280;8325;49.284;7.238;2023-05-29T15:48:18;98840.72;;;25.07;34.00
16431;BME280;8325;49.284;7.238;2023-05-29T15:52:29;98843.63;;;25.06;33.46
16431;BME280;8325;49.284;7.238;2023-05-29T15:56:57;98827.06;;;25.09;34.05
16431;BME280;8325;49.284;7.238;2023-05-29T16:01:11;98840.94;;;24.95;34.43
16431;BME280;8325;49.284;7.238;2023-05-29T16:05:23;98828.41;;;25.01;34.57
16431;BME280;8325;49.284;7.238;2023-05-29T16:09:34;98827.84;;;24.99;34.13
16431;BME280;8325;49.284;7.238;2023-05-29T16:13:48;98823.81;;;24.91;34.60
16431;BME280;8325;49.284;7.238;2023-05-29T16:17:59;98820.84;;;24.88;34.77
16431;BME280;8325;49.284;7.238;2023-05-29T16:22:11;98820.84;;;24.88;35.18
16431;BME280;8325;49.284;7.238;2023-05-29T16:26:24;98832.09;;;24.85;35.34
16431;BME280;8325;49.284;7.238;2023-05-29T16:30:38;98832.28;;;24.73;35.35
16431;BME280;8325;49.284;7.238;2023-05-29T16:34:50;98828.81;;;24.72;36.66
16431;BME280;8325;49.284;7.238;2023-05-29T16:39:03;98839.25;;;24.84;35.55
16431;BME280;8325;49.284;7.238;2023-05-29T16:43:15;98836.50;;;24.64;36.70
16431;BME280;8325;49.284;7.238;2023-05-29T16:47:26;98837.34;;;24.69;36.55
16431;BME280;8325;49.284;7.238;2023-05-29T16:51:38;98835.63;;;24.48;36.10
16431;BME280;8325;49.284;7.238;2023-05-29T16:55:50;98833.22;;;24.51;36.52
16431;BME280;8325;49.284;7.238;2023-05-29T17:00:05;98831.59;;;24.50;36.38
16431;BME280;8325;49.284;7.238;2023-05-29T17:04:17;98833.34;;;24.34;36.60
16431;BME280;8325;49.284;7.238;2023-05-29T17:08:29;98839.47;;;24.35;36.70
16431;BME280;8325;49.284;7.238;2023-05-29T17:12:41;98838.16;;;24.32;36.47
16431;BME280;8325;49.284;7.238;2023-05-29T17:16:54;98841.47;;;24.12;37.14
16431;BME280;8325;49.284;7.238;2023-05-29T17:21:06;98836.75;;;24.25;37.21
16431;BME280;8325;49.284;7.238;2023-05-29T17:25:18;98843.84;;;24.09;36.91
16431;BME280;8325;49.284;7.238;2023-05-29T17:29:31;98845.19;;;24.11;37.38
16431;BME280;8325;49.284;7.238;2023-05-29T17:33:42;98846.59;;;23.87;36.73
16431;BME280;8325;49.284;7.238;2023-05-29T17:37:54;98854.63;;;23.92;36.21
16431;BME280;8325;49.284;7.238;2023-05-29T17:42:06;98864.69;;;23.85;36.49
16431;BME280;8325;49.284;7.238;2023-05-29T17:46:18;98854.75;;;23.75;36.75
16431;BME280;8325;49.284;7.238;2023-05-29T17:50:30;98855.75;;;23.69;36.93
16431;BME280;8325;49.284;7.238;2023-05-29T17:54:45;98861.56;;;23.66;37.33
16431;BME280;8325;49.284;7.238;2023-05-29T17:58:57;98858.25;;;23.54;36.55
16431;BME280;8325;49.284;7.238;2023-05-29T18:03:09;98861.16;;;23.52;37.16
16431;BME280;8325;49.284;7.238;2023-05-29T18:07:20;98858.44;;;23.47;37.48
16431;BME280;8325;49.284;7.238;2023-05-29T18:11:32;98853.31;;;23.40;38.31
16431;BME280;8325;49.284;7.238;2023-05-29T18:15:43;98861.00;;;23.37;38.96
16431;BME280;8325;49.284;7.238;2023-05-29T18:19:55;98858.69;;;23.24;39.63
16431;BME280;8325;49.284;7.238;2023-05-29T18:24:07;98864.00;;;23.18;39.84
16431;BME280;8325;49.284;7.238;2023-05-29T18:28:21;98858.97;;;23.00;40.11
16431;BME280;8325;49.284;7.238;2023-05-29T18:32:34;98856.84;;;23.02;40.62
16431;BME280;8325;49.284;7.238;2023-05-29T18:36:46;98864.13;;;22.90;40.69
16431;BME280;8325;49.284;7.238;2023-05-29T18:40:58;98865.28;;;22.77;41.56
16431;BME280;8325;49.284;7.238;2023-05-29T18:45:10;98870.00;;;22.53;41.97
16431;BME280;8325;49.284;7.238;2023-05-29T18:49:24;98864.53;;;22.43;41.97
16431;BME280;8325;49.284;7.238;2023-05-29T18:53:38;98874.44;;;22.31;42.59
16431;BME280;8325;49.284;7.238;2023-05-29T18:57:53;98874.28;;;22.20;42.98
16431;BME280;8325;49.284;7.238;2023-05-29T19:02:05;98885.69;;;22.04;46.29
16431;BME280;8325;49.284;7.238;2023-05-29T19:06:19;98887.16;;;21.66;48.98
16431;BME280;8325;49.284;7.238;2023-05-29T19:10:38;98889.19;;;21.47;51.36
16431;BME280;8325;49.284;7.238;2023-05-29T19:14:52;98894.78;;;21.22;54.51
16431;BME280;8325;49.284;7.238;2023-05-29T19:19:04;98895.19;;;20.90;56.86
16431;BME280;8325;49.284;7.238;2023-05-29T19:23:15;98905.91;;;20.84;57.50
16431;BME280;8325;49.284;7.238;2023-05-29T19:27:28;98907.88;;;20.65;58.50
16431;BME280;8325;49.284;7.238;2023-05-29T19:31:41;98919.41;;;20.59;59.51
16431;BME280;8325;49.284;7.238;2023-05-29T19:35:53;98920.16;;;20.36;60.53
16431;BME280;8325;49.284;7.238;2023-05-29T19:40:19;98929.00;;;20.18;61.10
16431;BME280;8325;49.284;7.238;2023-05-29T19:44:41;98941.91;;;20.14;61.12
16431;BME280;8325;49.284;7.238;2023-05-29T19:49:51;98956.16;;;20.02;61.45
16431;BME280;8325;49.284;7.238;2023-05-29T19:54:56;98957.22;;;19.82;62.65
16431;BME280;8325;49.284;7.238;2023-05-29T19:59:17;98961.22;;;19.73;62.80
16431;BME280;8325;49.284;7.238;2023-05-29T20:09:39;98989.41;;;19.49;63.28
16431;BME280;8325;49.284;7.238;2023-05-29T20:13:50;98990.34;;;19.36;63.09
16431;BME280;8325;49.284;7.238;2023-05-29T20:18:20;98994.16;;;19.22;63.43
16431;BME280;8325;49.284;7.238;2023-05-29T20:22:46;98994.97;;;19.22;63.29
16431;BME280;8325;49.284;7.238;2023-05-29T20:27:18;98995.53;;;19.06;63.57
16431;BME280;8325;49.284;7.238;2023-05-29T20:31:48;98999.88;;;19.00;64.05
16431;BME280;8325;49.284;7.238;2023-05-29T20:36:47;99004.69;;;18.85;63.67
16431;BME280;8325;49.284;7.238;2023-05-29T20:40:59;99003.53;;;18.74;64.15
16431;BME280;8325;49.284;7.238;2023-05-29T20:45:11;99010.03;;;18.72;63.48
16431;BME280;8325;49.284;7.238;2023-05-29T20:49:26;99012.78;;;18.58;64.45
16431;BME280;8325;49.284;7.238;2023-05-29T20:53:37;99018.72;;;18.54;64.31
16431;BME280;8325;49.284;7.238;2023-05-29T20:57:49;99027.72;;;18.46;64.48
16431;BME280;8325;49.284;7.238;2023-05-29T21:02:02;99033.44;;;18.43;64.09
16431;BME280;8325;49.284;7.238;2023-05-29T21:06:14;99031.91;;;18.29;64.92
16431;BME280;8325;49.284;7.238;2023-05-29T21:10:26;99018.53;;;18.17;65.14
16431;BME280;8325;49.284;7.238;2023-05-29T21:14:38;99027.88;;;18.20;64.89
16431;BME280;8325;49.284;7.238;2023-05-29T21:18:49;99025.25;;;18.13;65.25
16431;BME280;8325;49.284;7.238;2023-05-29T21:23:01;99022.66;;;18.06;65.39
16431;BME280;8325;49.284;7.238;2023-05-29T21:27:13;99022.47;;;18.01;65.14
